Time;durP1;ratioP1;P1;durP2;ratioP2;P2;SDS_P1;SDS_P2;PMS_P1;PMS_P2;Temp;Humidity;BMP_temperature;BMP_pressure;BME280_temperature;BME280_humidity;BME280_pressure;Samples;Min_cycle;Max_cycle;Signal;HPM_P1;HPM_P2
2022/05/27 00:02:00;;;;;;;0.50;0.40;;;15.70;99.90;;;;;;5059882;28;20450;-85
2022/05/27 00:04:27;;;;;;;1.27;0.93;;;15.70;99.90;;;;;;5058766;28;20434;-84
2022/05/27 00:06:54;;;;;;;0.70;0.60;;;15.70;99.90;;;;;;5058368;28;20433;-84
2022/05/27 00:09:21;;;;;;;0.50;0.40;;;15.70;99.90;;;;;;5058174;28;20460;-85
2022/05/27 00:11:48;;;;;;;0.50;0.37;;;15.70;99.90;;;;;;5057714;28;20448;-84
2022/05/27 00:14:15;;;;;;;0.50;0.50;;;15.70;99.90;;;;;;5058283;28;20790;-85
2022/05/27 00:16:43;;;;;;;2.00;1.33;;;15.70;99.90;;;;;;5058577;28;20437;-85
2022/05/27 00:19:09;;;;;;;0.50;0.50;;;15.60;99.90;;;;;;5058566;28;20478;-85
2022/05/27 00:21:36;;;;;;;0.50;0.40;;;15.50;99.90;;;;;;5058917;28;20445;-83
2022/05/27 00:24:03;;;;;;;1.27;1.17;;;15.50;99.90;;;;;;5059403;28;20441;-85
2022/05/27 00:26:30;;;;;;;0.70;0.57;;;15.40;99.90;;;;;;5059204;28;20444;-84
2022/05/27 00:28:56;;;;;;;0.50;0.40;;;15.30;99.90;;;;;;5058518;28;20456;-83
2022/05/27 00:31:23;;;;;;;0.50;0.40;;;15.20;99.90;;;;;;5059077;28;20445;-85
2022/05/27 00:33:51;;;;;;;0.60;0.57;;;15.10;99.90;;;;;;5058150;28;20442;-85
2022/05/27 00:36:18;;;;;;;0.50;0.40;;;15.00;99.90;;;;;;5058481;28;20454;-85
2022/05/27 00:38:45;;;;;;;2.10;0.60;;;15.00;99.90;;;;;;5058050;28;20473;-85
2022/05/27 00:41:13;;;;;;;0.50;0.40;;;15.00;99.90;;;;;;5058783;28;20446;-85
2022/05/27 00:43:41;;;;;;;0.53;0.43;;;15.00;99.90;;;;;;5058150;28;20438;-84
2022/05/27 00:46:15;;;;;;;0.50;0.40;;;15.10;99.90;;;;;;5057979;28;20441;-83
2022/05/27 00:48:44;;;;;;;0.50;0.40;;;15.10;99.90;;;;;;5058423;28;20711;-85
2022/05/27 00:51:17;;;;;;;0.90;0.63;;;15.20;99.90;;;;;;5059278;28;20441;-85
2022/05/27 00:53:49;;;;;;;0.50;0.40;;;15.20;99.90;;;;;;5059087;28;20449;-85
2022/05/27 00:56:16;;;;;;;0.50;0.47;;;15.30;99.90;;;;;;5059818;28;20425;-84
2022/05/27 00:58:48;;;;;;;0.50;0.40;;;15.30;99.90;;;;;;5058536;28;20458;-85
2022/05/27 01:01:16;;;;;;;0.93;0.93;;;15.30;99.90;;;;;;5058624;28;20443;-85
2022/05/27 01:03:44;;;;;;;0.60;0.50;;;15.30;99.90;;;;;;5058939;28;20448;-83
2022/05/27 01:06:11;;;;;;;0.50;0.40;;;15.30;99.90;;;;;;5059060;28;20448;-85
2022/05/27 01:08:39;;;;;;;0.50;0.40;;;15.30;99.90;;;;;;5057526;28;20466;-85
2022/05/27 01:11:17;;;;;;;2.43;0.77;;;15.30;99.90;;;;;;5058243;28;20436;-85
2022/05/27 01:13:58;;;;;;;0.70;0.70;;;15.30;99.90;;;;;;5057852;28;20423;-85
2022/05/27 01:16:34;;;;;;;1.00;0.60;;;15.30;99.90;;;;;;5068426;28;20417;-82
2022/05/27 01:22:21;;;;;;;0.50;0.40;;;15.30;99.90;;;;;;5075855;28;20437;-82
2022/05/27 01:25:31;;;;;;;0.53;0.40;;;15.30;99.90;;;;;;5078652;28;20433;-83
2022/05/27 01:28:19;;;;;;;1.17;1.07;;;15.30;99.90;;;;;;5058771;28;20466;-84
2022/05/27 01:30:51;;;;;;;0.97;0.70;;;15.30;99.90;;;;;;5079510;28;20436;-82
2022/05/27 01:33:32;;;;;;;0.70;0.63;;;15.30;99.90;;;;;;5078401;28;20417;-84
2022/05/27 01:36:05;;;;;;;0.70;0.50;;;15.30;99.90;;;;;;5078276;28;20422;-82
2022/05/27 01:38:40;;;;;;;0.50;0.40;;;15.30;99.90;;;;;;5077913;28;20446;-84
2022/05/27 01:41:11;;;;;;;0.70;0.50;;;15.20;99.90;;;;;;5076779;28;20406;-81
2022/05/27 01:43:42;;;;;;;0.50;0.40;;;15.10;99.90;;;;;;5074643;28;20421;-84
2022/05/27 01:46:15;;;;;;;0.50;0.40;;;15.00;99.90;;;;;;5061413;28;20448;-84
2022/05/27 01:48:51;;;;;;;1.83;1.73;;;14.90;99.90;;;;;;5060902;28;20864;-84
2022/05/27 01:51:25;;;;;;;0.80;0.50;;;14.80;99.90;;;;;;5060918;28;20428;-84
2022/05/27 01:53:56;;;;;;;0.50;0.40;;;14.70;99.90;;;;;;5060538;28;20417;-84
2022/05/27 01:56:28;;;;;;;0.50;0.40;;;14.70;99.90;;;;;;5060577;28;20433;-83
2022/05/27 01:59:01;;;;;;;0.50;0.40;;;14.60;99.90;;;;;;5061148;28;20453;-83
2022/05/27 02:01:35;;;;;;;0.57;0.37;;;14.60;99.90;;;;;;5061965;28;20417;-84
2022/05/27 02:04:07;;;;;;;0.70;0.70;;;14.50;99.90;;;;;;5061198;28;20457;-84
2022/05/27 02:06:38;;;;;;;2.43;1.07;;;14.50;99.90;;;;;;5061631;28;20445;-84
2022/05/27 02:09:09;;;;;;;0.90;0.70;;;14.40;99.90;;;;;;5060705;28;20812;-83
2022/05/27 02:11:38;;;;;;;0.60;0.50;;;14.40;99.90;;;;;;5061305;28;20438;-84
2022/05/27 02:14:11;;;;;;;0.50;0.40;;;14.40;99.90;;;;;;5060021;28;20441;-85
2022/05/27 02:16:43;;;;;;;0.50;0.40;;;14.40;99.90;;;;;;5061246;28;20448;-84
2022/05/27 02:19:14;;;;;;;0.63;0.53;;;14.40;99.90;;;;;;5060585;28;20453;-81
2022/05/27 02:21:47;;;;;;;0.50;0.40;;;14.30;99.90;;;;;;5062326;28;20791;-83
2022/05/27 02:24:21;;;;;;;0.80;0.70;;;14.30;99.90;;;;;;5062033;28;20421;-85
2022/05/27 02:26:54;;;;;;;0.50;0.40;;;14.20;99.90;;;;;;5061724;28;20919;-85
2022/05/27 02:29:23;;;;;;;0.50;0.50;;;14.10;99.90;;;;;;5060815;28;20453;-84
2022/05/27 02:31:56;;;;;;;0.80;0.80;;;13.90;99.90;;;;;;5061995;28;20437;-84
2022/05/27 02:37:25;;;;;;;6.20;0.90;;;13.70;99.90;;;;;;5035543;28;20471;-84
2022/05/27 02:39:51;;;;;;;1.40;1.30;;;13.70;99.90;;;;;;5061510;28;20469;-84
2022/05/27 02:42:27;;;;;;;0.60;0.57;;;13.60;99.90;;;;;;5060846;28;20448;-84
2022/05/27 02:45:02;;;;;;;2.40;2.27;;;13.50;99.90;;;;;;5060538;28;20907;-83
2022/05/27 02:47:37;;;;;;;2.97;1.80;;;13.50;99.90;;;;;;5060339;28;20953;-83
2022/05/27 02:50:12;;;;;;;0.80;0.60;;;13.50;99.90;;;;;;5061451;28;20523;-84
2022/05/27 02:52:48;;;;;;;1.17;0.90;;;13.50;99.90;;;;;;5062477;28;20429;-84
2022/05/27 02:55:21;;;;;;;1.37;0.50;;;13.50;99.90;;;;;;5064286;28;20429;-84
2022/05/27 02:57:51;;;;;;;2.20;1.07;;;13.40;99.90;;;;;;5064703;28;20552;-85
2022/05/27 03:00:22;;;;;;;0.80;0.80;;;13.40;99.90;;;;;;5064630;28;20468;-85
2022/05/27 03:02:50;;;;;;;0.50;0.40;;;13.40;99.90;;;;;;5063078;28;20433;-84
2022/05/27 03:05:21;;;;;;;0.63;0.63;;;13.40;99.90;;;;;;5063466;28;20198;-84
2022/05/27 03:08:04;;;;;;;0.50;0.40;;;13.40;99.90;;;;;;5066598;28;20457;-84
2022/05/27 03:10:41;;;;;;;0.50;0.40;;;13.40;99.90;;;;;;5073071;28;20417;-82
2022/05/27 03:13:27;;;;;;;0.50;0.43;;;13.30;99.90;;;;;;5075879;28;20424;-83
2022/05/27 03:16:06;;;;;;;0.57;0.53;;;13.30;99.90;;;;;;5075799;28;20417;-84
2022/05/27 03:18:46;;;;;;;0.50;0.40;;;13.30;99.90;;;;;;5070425;28;20532;-84
2022/05/27 03:21:19;;;;;;;0.50;0.50;;;13.30;99.90;;;;;;5062311;28;20452;-84
2022/05/27 03:24:03;;;;;;;0.60;0.50;;;13.30;99.90;;;;;;5068422;28;20449;-82
2022/05/27 03:26:38;;;;;;;0.50;0.40;;;13.30;99.90;;;;;;5061416;28;20468;-82
2022/05/27 03:29:22;;;;;;;0.60;0.60;;;13.30;99.90;;;;;;5059555;28;20463;-79
2022/05/27 03:31:56;;;;;;;1.37;1.17;;;13.30;99.90;;;;;;5057285;28;20429;-83
2022/05/27 03:34:29;;;;;;;2.43;2.33;;;13.30;99.90;;;;;;5060544;28;20426;-83
2022/05/27 03:37:02;;;;;;;0.50;0.40;;;13.30;99.90;;;;;;5063699;28;20422;-82
2022/05/27 03:39:33;;;;;;;0.50;0.40;;;13.30;99.90;;;;;;5063385;28;20229;-83
2022/05/27 03:42:05;;;;;;;0.50;0.40;;;13.20;99.90;;;;;;5054640;28;20676;-83
2022/05/27 03:44:32;;;;;;;0.50;0.40;;;13.20;99.90;;;;;;5055495;28;20436;-82
2022/05/27 03:47:00;;;;;;;0.60;0.55;;;13.20;99.90;;;;;;5054893;28;20447;-83
2022/05/27 03:49:29;;;;;;;0.50;0.40;;;13.20;99.90;;;;;;5054581;28;20229;-82
2022/05/27 03:52:01;;;;;;;0.50;0.40;;;13.10;99.90;;;;;;5055163;28;20449;-83
2022/05/27 03:54:28;;;;;;;0.50;0.40;;;13.10;99.90;;;;;;5054989;28;20575;-82
2022/05/27 03:56:55;;;;;;;0.50;0.40;;;13.10;99.90;;;;;;5054290;28;20444;-82
2022/05/27 03:59:22;;;;;;;0.50;0.40;;;13.20;99.90;;;;;;5054498;28;20472;-83
2022/05/27 04:01:52;;;;;;;0.50;0.40;;;13.10;99.90;;;;;;5054711;28;20472;-83
2022/05/27 04:04:21;;;;;;;0.50;0.40;;;13.10;99.90;;;;;;5054665;28;20452;-82
2022/05/27 04:06:49;;;;;;;0.50;0.40;;;13.20;99.90;;;;;;5054816;28;20433;-82
2022/05/27 04:09:19;;;;;;;0.50;0.40;;;13.20;99.90;;;;;;5054577;28;20458;-83
2022/05/27 04:11:46;;;;;;;0.50;0.40;;;13.30;99.90;;;;;;5055381;28;20529;-83
2022/05/27 04:14:13;;;;;;;1.17;0.97;;;13.30;99.90;;;;;;5054104;28;20437;-83
2022/05/27 04:16:40;;;;;;;1.03;0.80;;;13.30;99.90;;;;;;5053892;28;20445;-83
2022/05/27 04:19:08;;;;;;;0.50;0.40;;;13.20;99.90;;;;;;5054255;28;20834;-83
2022/05/27 04:21:36;;;;;;;0.77;0.77;;;13.20;99.90;;;;;;5054762;28;20472;-83
2022/05/27 04:24:05;;;;;;;0.50;0.40;;;13.10;99.90;;;;;;5054198;28;20441;-82
2022/05/27 04:26:31;;;;;;;0.50;0.40;;;13.10;99.90;;;;;;5054439;28;20445;-83
2022/05/27 04:28:59;;;;;;;0.50;0.40;;;13.10;99.90;;;;;;5054446;28;20469;-82
2022/05/27 04:31:25;;;;;;;0.50;0.40;;;13.20;99.90;;;;;;5054720;28;20244;-83
2022/05/27 04:33:52;;;;;;;1.13;0.97;;;13.20;99.90;;;;;;5054676;28;20665;-83
2022/05/27 04:36:19;;;;;;;0.50;0.30;;;13.20;99.90;;;;;;5054633;28;20543;-82
2022/05/27 04:38:46;;;;;;;0.50;0.40;;;13.20;99.90;;;;;;5054848;28;20226;-83
2022/05/27 04:41:14;;;;;;;0.50;0.40;;;13.20;99.90;;;;;;5054631;28;20597;-83
2022/05/27 04:43:40;;;;;;;0.60;0.60;;;13.30;99.90;;;;;;5054882;28;20437;-83
2022/05/27 04:46:07;;;;;;;0.50;0.40;;;13.20;99.90;;;;;;5054689;28;20444;-83
2022/05/27 04:48:34;;;;;;;0.50;0.40;;;13.20;99.90;;;;;;5053592;28;20465;-82
2022/05/27 04:51:00;;;;;;;0.50;0.40;;;13.30;99.90;;;;;;5081880;22;20502;-78
2022/05/27 04:53:27;;;;;;;0.50;0.50;;;13.30;99.90;;;;;;5028288;28;20438;-78
2022/05/27 04:55:54;;;;;;;0.50;0.40;;;13.30;99.90;;;;;;5031730;28;20473;-78
2022/05/27 04:58:22;;;;;;;0.50;0.40;;;13.30;99.90;;;;;;5033762;28;20453;-78
2022/05/27 05:00:50;;;;;;;0.50;0.40;;;13.20;99.90;;;;;;5049312;28;20469;-78
2022/05/27 05:03:17;;;;;;;0.50;0.40;;;13.20;99.90;;;;;;5054091;28;20436;-78
2022/05/27 05:05:44;;;;;;;0.50;0.40;;;13.20;99.90;;;;;;5054946;28;20199;-78
2022/05/27 05:08:22;;;;;;;0.50;0.40;;;13.20;99.90;;;;;;5054487;28;20445;-78
2022/05/27 05:10:48;;;;;;;0.50;0.40;;;13.30;99.90;;;;;;5054421;28;20977;-78
2022/05/27 05:13:15;;;;;;;0.50;0.40;;;13.30;99.90;;;;;;5054176;28;20206;-77
2022/05/27 05:15:43;;;;;;;0.50;0.40;;;13.30;99.90;;;;;;5054707;28;20191;-77
2022/05/27 05:18:10;;;;;;;0.55;0.52;;;13.30;99.90;;;;;;5054221;28;20206;-78
2022/05/27 05:20:37;;;;;;;0.75;0.75;;;13.40;99.90;;;;;;5054923;28;20584;-78
2022/05/27 05:23:04;;;;;;;0.50;0.50;;;13.40;99.90;;;;;;5054522;28;20549;-78
2022/05/27 05:25:32;;;;;;;0.53;0.47;;;13.40;99.90;;;;;;5054888;28;20441;-78
2022/05/27 05:27:59;;;;;;;0.50;0.40;;;13.40;99.90;;;;;;5053731;28;20456;-78
2022/05/27 05:30:27;;;;;;;0.57;0.55;;;13.40;99.90;;;;;;5054610;28;20873;-78
2022/05/27 05:32:55;;;;;;;0.50;0.30;;;13.40;99.90;;;;;;5054423;28;20195;-78
2022/05/27 05:35:22;;;;;;;1.67;1.17;;;13.40;99.90;;;;;;5054484;28;20197;-78
2022/05/27 05:37:50;;;;;;;1.17;0.93;;;13.50;99.90;;;;;;5054098;28;20437;-78
2022/05/27 05:40:17;;;;;;;0.60;0.60;;;13.40;99.90;;;;;;5054535;28;20496;-78
2022/05/27 05:42:46;;;;;;;0.50;0.50;;;13.50;99.90;;;;;;5053939;28;20433;-78
2022/05/27 05:45:15;;;;;;;0.50;0.40;;;13.50;99.90;;;;;;5054289;28;20558;-77
2022/05/27 05:47:41;;;;;;;0.50;0.40;;;13.50;99.90;;;;;;5053804;28;20447;-78
2022/05/27 05:50:11;;;;;;;0.50;0.40;;;13.60;99.90;;;;;;5053825;28;20480;-76
2022/05/27 05:52:38;;;;;;;0.50;0.40;;;13.70;99.90;;;;;;5053622;28;20473;-78
2022/05/27 05:55:06;;;;;;;0.50;0.40;;;13.80;99.90;;;;;;5054336;28;20969;-78
2022/05/27 05:57:32;;;;;;;0.50;0.40;;;13.90;99.90;;;;;;5053967;28;21334;-77
2022/05/27 06:00:00;;;;;;;0.50;0.40;;;14.00;99.90;;;;;;5054186;28;20473;-78
2022/05/27 06:02:26;;;;;;;0.50;0.30;;;14.10;99.90;;;;;;5053835;28;20576;-78
2022/05/27 06:04:53;;;;;;;0.50;0.40;;;14.10;99.90;;;;;;5053724;28;20444;-78
2022/05/27 06:07:21;;;;;;;0.50;0.40;;;14.20;99.90;;;;;;5053509;28;20456;-76
2022/05/27 06:09:48;;;;;;;0.50;0.40;;;14.30;99.90;;;;;;5052691;28;20822;-78
2022/05/27 06:12:16;;;;;;;0.53;0.40;;;14.40;99.90;;;;;;5053342;28;20437;-78
2022/05/27 06:14:43;;;;;;;0.50;0.50;;;14.40;99.90;;;;;;5053036;28;20485;-77
2022/05/27 06:17:10;;;;;;;1.17;0.53;;;14.40;99.90;;;;;;5052943;28;20448;-79
2022/05/27 06:19:37;;;;;;;0.50;0.40;;;14.40;99.90;;;;;;5053470;28;20461;-78
2022/05/27 06:22:04;;;;;;;1.57;1.13;;;14.30;99.90;;;;;;5053596;28;20477;-78
2022/05/27 06:24:32;;;;;;;3.27;1.70;;;14.40;99.90;;;;;;5053265;28;20461;-79
2022/05/27 06:26:59;;;;;;;0.77;0.77;;;14.30;99.90;;;;;;5053413;28;20441;-78
2022/05/27 06:34:54;;;;;;;0.50;0.40;;;15.80;99.90;;;;;;5053357;28;20445;-77
2022/05/27 06:37:22;;;;;;;0.50;0.40;;;16.70;99.90;;;;;;5052911;28;20826;-78
2022/05/27 06:39:50;;;;;;;1.43;1.33;;;17.80;99.90;;;;;;5052935;28;21012;-77
2022/05/27 06:42:18;;;;;;;0.50;0.40;;;18.80;99.90;;;;;;5053395;28;20476;-78
2022/05/27 06:44:44;;;;;;;0.70;0.70;;;19.50;99.90;;;;;;5053136;28;20810;-77
2022/05/27 06:47:13;;;;;;;0.50;0.30;;;20.50;99.90;;;;;;5052987;28;20452;-78
2022/05/27 06:49:43;;;;;;;0.87;0.87;;;20.80;99.90;;;;;;5052839;28;20893;-78
2022/05/27 06:52:10;;;;;;;0.50;0.40;;;20.60;99.90;;;;;;5052851;28;20483;-78
2022/05/27 06:54:37;;;;;;;4.83;2.60;;;21.30;99.90;;;;;;5052427;28;20449;-77
2022/05/27 06:57:07;;;;;;;0.60;0.50;;;21.20;99.90;;;;;;5053047;28;20447;-78
2022/05/27 06:59:35;;;;;;;1.07;0.83;;;21.10;99.90;;;;;;5052314;28;20461;-77
2022/05/27 07:02:02;;;;;;;0.50;0.40;;;21.50;99.90;;;;;;5052369;28;20480;-78
2022/05/27 07:04:29;;;;;;;0.50;0.40;;;21.40;99.90;;;;;;5052204;28;20444;-78
2022/05/27 07:06:57;;;;;;;0.50;0.30;;;21.10;99.90;;;;;;5052788;28;20938;-77
2022/05/27 07:09:24;;;;;;;0.50;0.30;;;20.90;99.90;;;;;;5052760;28;20445;-77
2022/05/27 07:11:56;;;;;;;3.40;0.93;;;20.90;99.90;;;;;;5052513;28;20429;-77
2022/05/27 07:14:24;;;;;;;0.50;0.30;;;20.30;99.90;;;;;;5052268;28;20521;-77
2022/05/27 07:16:50;;;;;;;0.50;0.30;;;19.70;99.90;;;;;;5052359;28;20433;-78
2022/05/27 07:19:19;;;;;;;0.50;0.30;;;20.10;99.90;;;;;;5051869;28;20441;-78
2022/05/27 07:21:47;;;;;;;0.50;0.50;;;20.60;99.90;;;;;;5051882;28;20473;-77
2022/05/27 07:24:16;;;;;;;0.70;0.70;;;20.40;99.90;;;;;;5052194;28;20810;-76
2022/05/27 07:26:44;;;;;;;1.20;0.60;;;20.10;99.90;;;;;;5051961;28;20456;-77
2022/05/27 07:29:11;;;;;;;0.50;0.30;;;19.80;99.90;;;;;;5051530;28;20468;-77
2022/05/27 07:31:41;;;;;;;0.50;0.30;;;19.70;99.90;;;;;;5052270;28;20751;-77
2022/05/27 07:34:07;;;;;;;0.50;0.40;;;20.00;99.90;;;;;;5051898;28;20479;-77
2022/05/27 07:36:35;;;;;;;0.50;0.30;;;19.80;99.90;;;;;;5051564;28;20922;-77
2022/05/27 07:39:03;;;;;;;0.50;0.40;;;19.40;99.90;;;;;;5052169;28;20443;-78
2022/05/27 07:41:30;;;;;;;0.50;0.30;;;19.00;99.90;;;;;;5051995;28;20473;-77
2022/05/27 07:43:59;;;;;;;0.50;0.30;;;18.70;99.90;;;;;;5051946;28;20494;-78
2022/05/27 07:46:26;;;;;;;0.50;0.40;;;18.50;99.90;;;;;;5051665;28;20441;-78
2022/05/27 07:48:55;;;;;;;2.73;2.63;;;18.40;99.90;;;;;;5051323;28;20962;-77
2022/05/27 07:51:22;;;;;;;0.50;0.40;;;18.60;99.90;;;;;;5051257;28;20477;-78
2022/05/27 07:53:49;;;;;;;0.50;0.30;;;18.70;99.90;;;;;;5051681;28;20448;-77
2022/05/27 07:56:15;;;;;;;0.50;0.40;;;18.80;99.90;;;;;;5051747;28;20440;-77
2022/05/27 07:58:42;;;;;;;0.50;0.40;;;18.50;99.90;;;;;;5050661;28;20445;-77
2022/05/27 08:01:09;;;;;;;1.63;1.53;;;19.10;99.90;;;;;;5051688;28;20500;-78
2022/05/27 08:03:36;;;;;;;0.50;0.30;;;20.70;99.90;;;;;;5051601;28;20849;-78
2022/05/27 08:06:04;;;;;;;0.50;0.40;;;21.60;99.90;;;;;;5052128;28;20815;-78
2022/05/27 08:08:31;;;;;;;0.50;0.30;;;21.70;99.90;;;;;;5051293;28;20437;-78
2022/05/27 08:10:58;;;;;;;0.50;0.40;;;21.50;99.90;;;;;;5051902;28;20468;-76
2022/05/27 08:13:26;;;;;;;0.50;0.40;;;21.40;99.90;;;;;;5051578;28;20441;-78
2022/05/27 08:15:53;;;;;;;0.60;0.50;;;21.20;99.90;;;;;;5051415;28;20437;-78
2022/05/27 08:18:20;;;;;;;0.50;0.30;;;21.10;99.90;;;;;;5051547;28;20441;-77
2022/05/27 08:20:47;;;;;;;1.43;1.17;;;21.20;99.90;;;;;;5051499;28;20478;-78
2022/05/27 08:23:15;;;;;;;0.50;0.40;;;21.90;99.90;;;;;;5051634;28;20444;-76
2022/05/27 08:25:42;;;;;;;0.50;0.40;;;21.70;99.90;;;;;;5051408;28;20981;-78
2022/05/27 08:28:10;;;;;;;0.50;0.30;;;21.50;99.90;;;;;;5051567;28;20448;-78
2022/05/27 08:30:40;;;;;;;0.60;0.50;;;21.00;99.90;;;;;;5052153;28;20464;-79
2022/05/27 08:33:07;;;;;;;0.50;0.40;;;20.40;99.90;;;;;;5054183;28;20437;-78
2022/05/27 08:38:27;;;;;;;0.50;0.30;;;20.10;99.90;;;;;;5057285;28;20404;-78
2022/05/27 08:41:24;;;;;;;0.50;0.30;;;19.80;99.90;;;;;;5058460;28;20471;-78
2022/05/27 08:44:05;;;;;;;0.50;0.30;;;19.40;99.90;;;;;;5057952;28;20444;-78
2022/05/27 08:46:41;;;;;;;0.50;0.30;;;19.10;99.90;;;;;;5057753;28;20523;-77
2022/05/27 08:49:13;;;;;;;3.17;1.07;;;19.10;99.90;;;;;;5055012;28;20736;-77
2022/05/27 08:51:45;;;;;;;0.60;0.50;;;19.50;99.90;;;;;;5055167;28;20425;-78
2022/05/27 08:54:16;;;;;;;0.50;0.30;;;19.40;99.90;;;;;;5055175;28;20445;-78
2022/05/27 08:59:40;;;;;;;0.50;0.40;;;18.40;99.90;;;;;;5015779;28;20469;-77
2022/05/27 09:02:12;;;;;;;0.50;0.37;;;18.30;99.90;;;;;;5055939;28;20468;-78
2022/05/27 09:04:47;;;;;;;1.03;0.63;;;19.70;99.90;;;;;;5054770;28;20914;-78
2022/05/27 09:07:27;;;;;;;0.50;0.40;;;21.00;99.90;;;;;;5055040;28;20427;-78
2022/05/27 09:09:55;;;;;;;1.13;1.13;;;22.60;99.90;;;;;;5054846;28;20464;-77
2022/05/27 09:12:33;;;;;;;0.57;0.37;;;24.00;99.90;;;;;;5055125;28;20433;-78
2022/05/27 09:15:03;;;;;;;0.50;0.40;;;24.90;96.20;;;;;;5053779;28;20976;-77
2022/05/27 09:17:39;;;;;;;0.77;0.50;;;25.30;95.10;;;;;;5054689;28;20437;-79
2022/05/27 09:20:17;;;;;;;0.60;0.40;;;25.00;88.70;;;;;;5054960;28;20459;-78
2022/05/27 09:22:51;;;;;;;0.50;0.30;;;24.10;90.90;;;;;;5054943;28;20480;-78
2022/05/27 09:25:26;;;;;;;0.50;0.30;;;23.30;93.20;;;;;;5054505;28;20441;-77
2022/05/27 09:28:03;;;;;;;0.50;0.30;;;22.70;94.30;;;;;;5054584;28;20440;-79
2022/05/27 09:30:33;;;;;;;0.50;0.33;;;22.10;99.90;;;;;;5054636;28;20483;-78
2022/05/27 09:33:04;;;;;;;0.50;0.30;;;21.00;99.90;;;;;;5055138;28;20429;-79
2022/05/27 09:35:36;;;;;;;0.50;0.30;;;21.80;99.90;;;;;;5054605;28;20448;-79
2022/05/27 09:38:05;;;;;;;0.50;0.30;;;23.50;99.90;;;;;;5054736;28;20456;-80
2022/05/27 09:40:39;;;;;;;3.43;2.00;;;25.80;93.00;;;;;;5054307;28;20461;-79
2022/05/27 09:43:15;;;;;;;0.50;0.30;;;27.10;85.60;;;;;;5054924;28;20468;-79
2022/05/27 09:45:43;;;;;;;19.63;4.30;;;25.50;81.50;;;;;;5054949;28;20421;-79
2022/05/27 09:48:11;;;;;;;0.50;0.30;;;24.60;80.90;;;;;;5054268;28;20536;-78
2022/05/27 09:50:41;;;;;;;0.50;0.33;;;24.10;86.40;;;;;;5053832;28;20457;-78
2022/05/27 09:53:11;;;;;;;0.50;0.33;;;23.60;85.70;;;;;;5054407;28;20480;-80
2022/05/27 09:55:47;;;;;;;0.53;0.37;;;22.90;89.10;;;;;;5054378;28;20448;-79
2022/05/27 09:58:14;;;;;;;0.50;0.30;;;22.80;96.70;;;;;;5053948;28;20984;-79
2022/05/27 10:00:44;;;;;;;0.50;0.30;;;23.30;93.20;;;;;;5053637;28;20469;-79
2022/05/27 10:03:30;;;;;;;0.50;0.50;;;23.90;89.60;;;;;;5054629;28;20508;-79
2022/05/27 10:06:01;;;;;;;0.50;0.30;;;23.70;84.70;;;;;;5053990;28;20445;-79
2022/05/27 10:08:30;;;;;;;0.50;0.30;;;23.60;89.00;;;;;;5054069;28;20523;-79
2022/05/27 10:11:15;;;;;;;0.50;0.30;;;24.10;81.70;;;;;;5055369;28;20464;-79
2022/05/27 10:13:42;;;;;;;0.50;0.30;;;24.40;84.00;;;;;;5055731;28;20417;-79
2022/05/27 10:16:12;;;;;;;0.50;0.40;;;24.70;87.70;;;;;;5056654;28;20449;-81
2022/05/27 10:18:40;;;;;;;0.50;0.30;;;25.20;80.20;;;;;;5058967;28;20503;-78
2022/05/27 10:21:13;;;;;;;1.03;1.03;;;25.60;77.40;;;;;;5056538;28;20468;-78
2022/05/27 10:23:42;;;;;;;0.50;0.30;;;24.70;75.10;;;;;;5056039;28;21012;-79
2022/05/27 10:26:29;;;;;;;0.50;0.30;;;24.70;76.80;;;;;;5053358;28;20441;-79
2022/05/27 10:29:02;;;;;;;0.50;0.30;;;24.20;74.90;;;;;;5053892;28;20542;-78
2022/05/27 10:31:30;;;;;;;0.50;0.40;;;24.20;78.00;;;;;;5053564;28;20465;-79
2022/05/27 10:34:00;;;;;;;0.50;0.40;;;24.90;77.00;;;;;;5054049;28;20441;-79
2022/05/27 10:36:40;;;;;;;0.50;0.30;;;25.90;74.70;;;;;;5053805;28;20448;-79
2022/05/27 10:39:10;;;;;;;0.50;0.40;;;27.00;69.40;;;;;;5053278;28;20460;-79
2022/05/27 10:41:58;;;;;;;0.50;0.30;;;26.40;65.90;;;;;;5053689;28;20429;-78
2022/05/27 10:44:35;;;;;;;0.50;0.40;;;25.10;67.10;;;;;;5053616;28;20422;-79
2022/05/27 10:47:01;;;;;;;0.50;0.30;;;24.80;72.20;;;;;;5055799;28;20448;-79
2022/05/27 10:49:53;;;;;;;0.50;0.40;;;25.40;69.00;;;;;;5054616;28;21816;-79
2022/05/27 10:52:35;;;;;;;3.27;0.40;;;26.80;66.30;;;;;;5107672;22;20461;-88
2022/05/27 10:55:12;;;;;;;0.50;0.30;;;27.80;64.00;;;;;;5043624;28;20444;-83
2022/05/27 11:04:02;;;;;;;0.50;0.30;;;27.30;59.50;;;;;;5052429;28;20467;-86
2022/05/27 11:06:48;;;;;;;0.50;0.30;;;27.40;60.70;;;;;;5056832;28;20443;-87
2022/05/27 11:09:29;;;;;;;0.50;0.30;;;28.20;60.30;;;;;;5057027;28;20849;-86
2022/05/27 11:12:04;;;;;;;2.50;0.63;;;28.10;58.30;;;;;;5058112;28;20790;-87
2022/05/27 11:17:36;;;;;;;0.50;0.40;;;24.80;63.50;;;;;;5063262;28;20507;-86
2022/05/27 11:20:26;;;;;;;0.50;0.40;;;23.70;65.70;;;;;;5061046;28;20453;-84
2022/05/27 11:23:04;;;;;;;0.57;0.40;;;24.50;68.50;;;;;;5057608;28;20477;-86
2022/05/27 11:25:40;;;;;;;0.60;0.47;;;26.20;65.90;;;;;;5059940;28;20424;-87
2022/05/27 11:28:22;;;;;;;0.73;0.60;;;26.60;61.10;;;;;;5061629;28;20451;-86
2022/05/27 11:31:01;;;;;;;0.50;0.30;;;27.30;60.50;;;;;;5065090;28;20441;-85
2022/05/27 11:33:43;;;;;;;0.50;0.30;;;26.80;62.30;;;;;;5066081;28;20507;-87
2022/05/27 11:36:21;;;;;;;0.50;0.40;;;26.00;61.60;;;;;;5059978;28;20448;-86
2022/05/27 11:39:21;;;;;;;0.60;0.40;;;24.50;63.80;;;;;;5058976;28;20532;-86
2022/05/27 11:42:01;;;;;;;0.50;0.30;;;23.70;63.80;;;;;;5057364;28;20437;-85
2022/05/27 11:44:37;;;;;;;0.50;0.30;;;23.90;71.40;;;;;;5062911;28;20576;-87
2022/05/27 11:47:34;;;;;;;0.80;0.80;;;24.90;66.30;;;;;;5065607;28;20452;-85
2022/05/27 11:50:22;;;;;;;0.90;0.90;;;25.00;64.20;;;;;;5062887;28;20449;-83
2022/05/27 11:53:03;;;;;;;0.50;0.30;;;24.30;64.20;;;;;;5064004;28;20463;-85
2022/05/27 11:55:50;;;;;;;0.50;0.43;;;24.40;67.10;;;;;;5065037;28;20441;-83
2022/05/27 11:58:20;;;;;;;0.60;0.40;;;25.20;64.60;;;;;;5059418;28;20450;-85
2022/05/27 12:00:51;;;;;;;0.50;0.30;;;25.10;60.70;;;;;;5056024;28;20452;-85
2022/05/27 12:03:29;;;;;;;0.60;0.57;;;24.70;59.60;;;;;;5056486;28;20485;-85
2022/05/27 12:05:59;;;;;;;0.80;0.80;;;23.80;62.30;;;;;;5057528;28;20544;-85
2022/05/27 12:08:36;;;;;;;1.33;0.87;;;23.20;63.10;;;;;;5057196;28;20916;-86
2022/05/27 12:11:08;;;;;;;0.60;0.40;;;22.70;63.90;;;;;;5056815;28;20436;-85
2022/05/27 12:13:39;;;;;;;0.50;0.30;;;23.30;66.00;;;;;;5055810;28;20457;-86
2022/05/27 12:16:11;;;;;;;0.50;0.30;;;24.20;60.90;;;;;;5057143;28;20418;-84
2022/05/27 12:18:43;;;;;;;0.93;0.80;;;24.60;59.80;;;;;;5056205;28;20799;-86
2022/05/27 12:21:14;;;;;;;21.73;1.80;;;23.80;60.90;;;;;;5054995;28;20431;-84
2022/05/27 12:23:45;;;;;;;0.50;0.30;;;23.40;61.70;;;;;;5055111;28;21000;-85
2022/05/27 12:26:12;;;;;;;0.50;0.40;;;23.00;64.00;;;;;;5054894;28;20441;-86
2022/05/27 12:28:42;;;;;;;0.60;0.50;;;23.00;65.10;;;;;;5054571;28;20499;-86
2022/05/27 12:31:10;;;;;;;0.70;0.47;;;23.90;66.00;;;;;;5054576;28;20425;-85
2022/05/27 12:33:39;;;;;;;0.60;0.40;;;24.90;65.40;;;;;;5055010;28;20802;-86
2022/05/27 12:36:08;;;;;;;1.70;1.00;;;25.30;63.00;;;;;;5054233;28;20437;-85
2022/05/27 12:38:37;;;;;;;0.60;0.40;;;24.90;61.70;;;;;;5055800;28;20437;-88
2022/05/27 12:41:06;;;;;;;1.47;0.77;;;24.70;61.30;;;;;;5055075;28;20447;-84
2022/05/27 12:43:36;;;;;;;2.90;0.43;;;25.40;59.60;;;;;;5054911;28;20489;-87
2022/05/27 12:46:29;;;;;;;0.50;0.40;;;26.00;58.80;;;;;;5065752;28;20960;-87
2022/05/27 12:49:34;;;;;;;0.57;0.47;;;25.80;58.90;;;;;;5070256;28;20432;-85
2022/05/27 12:52:02;;;;;;;1.40;1.30;;;26.70;56.80;;;;;;5073837;28;20892;-85
2022/05/27 12:55:01;;;;;;;1.37;1.27;;;27.60;56.80;;;;;;5074458;28;20822;-83
2022/05/27 13:00:59;;;;;;;0.50;0.30;;;26.40;55.90;;;;;;5074438;28;20400;-86
2022/05/27 13:03:51;;;;;;;0.50;0.30;;;25.90;56.60;;;;;;5073117;28;20511;-84
2022/05/27 13:06:42;;;;;;;0.83;0.50;;;25.40;55.90;;;;;;5073856;28;20424;-86
2022/05/27 13:09:13;;;;;;;0.70;0.70;;;25.90;58.80;;;;;;5073642;28;20463;-85
2022/05/27 13:11:46;;;;;;;0.60;0.40;;;26.10;56.50;;;;;;5074391;28;20848;-86
2022/05/27 13:14:35;;;;;;;1.20;0.97;;;26.50;56.00;;;;;;5074094;28;20487;-87
2022/05/27 13:17:06;;;;;;;3.17;1.43;;;25.70;57.20;;;;;;5074374;28;20431;-86
2022/05/27 13:19:37;;;;;;;2.77;2.53;;;24.30;57.20;;;;;;5076352;28;20439;-84
2022/05/27 13:22:11;;;;;;;0.80;0.80;;;24.00;59.20;;;;;;5077604;28;20446;-83
2022/05/27 13:24:40;;;;;;;0.80;0.40;;;24.30;58.70;;;;;;5077557;28;20945;-85
2022/05/27 13:27:22;;;;;;;0.50;0.30;;;24.40;58.30;;;;;;5077441;28;20451;-86
2022/05/27 13:29:59;;;;;;;0.60;0.40;;;24.40;58.90;;;;;;5077428;28;20447;-86
2022/05/27 13:32:28;;;;;;;0.50;0.50;;;24.40;59.00;;;;;;5077481;28;20452;-87
2022/05/27 13:34:58;;;;;;;0.50;0.30;;;23.70;58.50;;;;;;5077799;28;20431;-84
2022/05/27 13:37:34;;;;;;;1.60;1.23;;;23.60;59.20;;;;;;5076956;28;20454;-86
2022/05/27 13:40:04;;;;;;;1.43;1.33;;;23.60;59.60;;;;;;5077397;28;20432;-81
2022/05/27 13:42:33;;;;;;;0.90;0.70;;;23.60;58.20;;;;;;5077479;28;20456;-86